Marinette, WI (54143)

9:54 AM CST on February 13, 2016 (GMT -0600)
NOS_NWLON | | Change Station
CLOSE
Current Station
Personal Weather Station
Location: Marinette, WI
Elevation: 580 ft
Nearby Weather Stations

Elev 580 ft 45.10 °N, 87.59 °W | Updated 36 minutes ago

Clear
Clear
2 °F
Feels Like -16 °F
N
13
Wind Variable Wind from WNW
Gusts 16.0 mph

Today
High -- | Low -- °F
--% Chance of Precip.
Yesterday
High -- | Low -- °F
Precip. -- in
Pressure 30.51 in
Visibility 10.0 miles
Clouds Clear
Windchill -16 °F
Dew Point Not available.
Humidity Not available.
Rainfall in
Snow Depth Not available.
6:55 AM 5:14 PM
Waxing Crescent, 31% visible
METAR KMNM 131535Z AUTO 33009KT 10SM CLR M16/M21 A3051 RMK AO1
Pressure 30.51 in
Visibility 10.0 miles
Clouds Clear
Windchill -16 °F
Dew Point Not available.
Humidity Not available.
Rainfall in
Snow Depth Not available.
6:55 AM 5:14 PM
Waxing Crescent, 31% visible
METAR KMNM 131535Z AUTO 33009KT 10SM CLR M16/M21 A3051 RMK AO1

10-Day Weather Forecast

Almanac

Astronomy

Feb. 13, 2016 Rise Set
Actual Time
Civil Twilight
Nautical Twilight
Astronomical Twilight
Moon
Length of Visible Light
Length of Day
Tomorrow will be .
, % of the Moon is Illuminated

Today's Extremes

State Highs State Lows

Community

WunderPhotos

Upload Photos

1,892,587 photos uploaded!

WunderBlog® & News

Nearby

Air Quality

  Air Quality AQ Index Pollutant
Not available.

Snow Depth

Station Depth Elevation

Earthquake Activity

City Distance Mag. Time & Date
Minimum magnitude displayed is 2.5.

Coastal Water Temperatures

Place Temperature

Stations

Nearby Weather Stations

Station Location Temp. Windchill Dew Point Humidity Wind Precip. Elev Updated Type
                   

Watches & Warnings

There are currently no watches in effect.